sensor_id;sensor_type;location;lat;lon;timestamp;P1;durP1;ratioP1;P2;durP2;ratioP2
25917;SDS011;13899;51.174;4.456;2023-04-24T00:02:15;26.15;;;18.90;;
25917;SDS011;13899;51.174;4.456;2023-04-24T00:04:41;30.08;;;18.33;;
25917;SDS011;13899;51.174;4.456;2023-04-24T00:07:10;24.55;;;17.88;;
25917;SDS011;13899;51.174;4.456;2023-04-24T00:09:36;21.55;;;17.80;;
25917;SDS011;13899;51.174;4.456;2023-04-24T00:12:02;21.27;;;18.45;;
25917;SDS011;13899;51.174;4.456;2023-04-24T00:14:31;22.42;;;17.98;;
25917;SDS011;13899;51.174;4.456;2023-04-24T00:16:57;23.20;;;20.35;;
25917;SDS011;13899;51.174;4.456;2023-04-24T00:19:22;27.35;;;19.17;;
25917;SDS011;13899;51.174;4.456;2023-04-24T00:21:48;28.13;;;20.98;;
25917;SDS011;13899;51.174;4.456;2023-04-24T00:24:15;30.70;;;21.60;;
25917;SDS011;13899;51.174;4.456;2023-04-24T00:29:07;32.83;;;21.20;;
25917;SDS011;13899;51.174;4.456;2023-04-24T00:31:33;26.30;;;20.47;;
25917;SDS011;13899;51.174;4.456;2023-04-24T00:34:01;30.75;;;21.42;;
25917;SDS011;13899;51.174;4.456;2023-04-24T00:36:28;27.75;;;21.85;;
25917;SDS011;13899;51.174;4.456;2023-04-24T00:38:54;29.88;;;23.40;;
25917;SDS011;13899;51.174;4.456;2023-04-24T00:41:20;25.00;;;21.00;;
25917;SDS011;13899;51.174;4.456;2023-04-24T00:43:47;34.42;;;21.50;;
25917;SDS011;13899;51.174;4.456;2023-04-24T00:46:13;26.13;;;21.17;;
25917;SDS011;13899;51.174;4.456;2023-04-24T00:48:39;24.40;;;19.10;;
25917;SDS011;13899;51.174;4.456;2023-04-24T00:51:05;32.10;;;22.27;;
25917;SDS011;13899;51.174;4.456;2023-04-24T00:53:31;25.23;;;21.10;;
25917;SDS011;13899;51.174;4.456;2023-04-24T00:55:57;23.05;;;19.40;;
25917;SDS011;13899;51.174;4.456;2023-04-24T00:58:23;37.33;;;22.60;;
25917;SDS011;13899;51.174;4.456;2023-04-24T01:00:50;25.55;;;19.48;;
25917;SDS011;13899;51.174;4.456;2023-04-24T01:03:18;27.25;;;20.38;;
25917;SDS011;13899;51.174;4.456;2023-04-24T01:05:47;26.42;;;19.88;;
25917;SDS011;13899;51.174;4.456;2023-04-24T01:08:14;27.83;;;19.13;;
25917;SDS011;13899;51.174;4.456;2023-04-24T01:10:41;32.90;;;20.48;;
25917;SDS011;13899;51.174;4.456;2023-04-24T01:13:07;24.77;;;20.67;;
25917;SDS011;13899;51.174;4.456;2023-04-24T01:15:34;24.00;;;19.60;;
25917;SDS011;13899;51.174;4.456;2023-04-24T01:18:00;24.52;;;21.05;;
25917;SDS011;13899;51.174;4.456;2023-04-24T01:20:25;29.00;;;19.33;;
25917;SDS011;13899;51.174;4.456;2023-04-24T01:22:54;24.47;;;19.00;;
25917;SDS011;13899;51.174;4.456;2023-04-24T01:25:21;28.75;;;19.60;;
25917;SDS011;13899;51.174;4.456;2023-04-24T01:27:47;22.95;;;19.50;;
25917;SDS011;13899;51.174;4.456;2023-04-24T01:30:13;29.13;;;18.52;;
25917;SDS011;13899;51.174;4.456;2023-04-24T01:32:39;21.87;;;19.40;;
25917;SDS011;13899;51.174;4.456;2023-04-24T01:35:09;16.85;;;15.25;;
25917;SDS011;13899;51.174;4.456;2023-04-24T01:37:35;23.38;;;18.13;;
25917;SDS011;13899;51.174;4.456;2023-04-24T01:40:02;25.27;;;17.75;;
25917;SDS011;13899;51.174;4.456;2023-04-24T01:42:32;18.98;;;17.10;;
25917;SDS011;13899;51.174;4.456;2023-04-24T01:44:59;17.17;;;15.27;;
25917;SDS011;13899;51.174;4.456;2023-04-24T01:47:25;16.02;;;14.40;;
25917;SDS011;13899;51.174;4.456;2023-04-24T01:49:51;16.75;;;15.05;;
25917;SDS011;13899;51.174;4.456;2023-04-24T01:52:17;14.90;;;13.20;;
25917;SDS011;13899;51.174;4.456;2023-04-24T01:54:43;15.60;;;13.95;;
25917;SDS011;13899;51.174;4.456;2023-04-24T01:57:10;17.77;;;15.53;;
25917;SDS011;13899;51.174;4.456;2023-04-24T01:59:36;15.50;;;13.85;;
25917;SDS011;13899;51.174;4.456;2023-04-24T02:02:02;17.00;;;13.82;;
25917;SDS011;13899;51.174;4.456;2023-04-24T02:04:28;15.57;;;13.45;;
25917;SDS011;13899;51.174;4.456;2023-04-24T02:06:54;16.38;;;13.73;;
25917;SDS011;13899;51.174;4.456;2023-04-24T02:09:20;20.02;;;14.10;;
25917;SDS011;13899;51.174;4.456;2023-04-24T02:11:45;19.03;;;13.90;;
25917;SDS011;13899;51.174;4.456;2023-04-24T02:14:11;19.85;;;13.18;;
25917;SDS011;13899;51.174;4.456;2023-04-24T02:16:37;16.00;;;13.60;;
25917;SDS011;13899;51.174;4.456;2023-04-24T02:19:03;18.08;;;12.30;;
25917;SDS011;13899;51.174;4.456;2023-04-24T02:21:29;14.20;;;12.70;;
25917;SDS011;13899;51.174;4.456;2023-04-24T02:23:56;14.52;;;12.43;;
25917;SDS011;13899;51.174;4.456;2023-04-24T02:26:22;16.25;;;13.77;;
25917;SDS011;13899;51.174;4.456;2023-04-24T02:28:47;16.50;;;14.05;;
25917;SDS011;13899;51.174;4.456;2023-04-24T02:31:13;17.27;;;15.77;;
25917;SDS011;13899;51.174;4.456;2023-04-24T02:33:39;17.85;;;16.08;;
25917;SDS011;13899;51.174;4.456;2023-04-24T02:36:05;12.27;;;11.18;;
25917;SDS011;13899;51.174;4.456;2023-04-24T02:38:30;15.13;;;13.63;;
25917;SDS011;13899;51.174;4.456;2023-04-24T02:40:56;20.20;;;16.50;;
25917;SDS011;13899;51.174;4.456;2023-04-24T02:43:22;15.90;;;14.40;;
25917;SDS011;13899;51.174;4.456;2023-04-24T02:45:48;13.73;;;12.53;;
25917;SDS011;13899;51.174;4.456;2023-04-24T02:48:13;11.97;;;10.80;;
25917;SDS011;13899;51.174;4.456;2023-04-24T02:50:39;15.73;;;14.30;;
25917;SDS011;13899;51.174;4.456;2023-04-24T02:53:05;14.70;;;13.38;;
25917;SDS011;13899;51.174;4.456;2023-04-24T02:55:31;14.67;;;13.47;;
25917;SDS011;13899;51.174;4.456;2023-04-24T02:57:57;13.20;;;11.90;;
25917;SDS011;13899;51.174;4.456;2023-04-24T03:00:22;11.27;;;9.93;;
25917;SDS011;13899;51.174;4.456;2023-04-24T03:02:48;15.83;;;14.33;;
25917;SDS011;13899;51.174;4.456;2023-04-24T03:05:15;15.43;;;14.05;;
25917;SDS011;13899;51.174;4.456;2023-04-24T03:07:40;15.43;;;13.93;;
25917;SDS011;13899;51.174;4.456;2023-04-24T03:10:06;16.93;;;14.57;;
25917;SDS011;13899;51.174;4.456;2023-04-24T03:12:32;16.02;;;14.38;;
25917;SDS011;13899;51.174;4.456;2023-04-24T03:14:58;18.63;;;16.60;;
25917;SDS011;13899;51.174;4.456;2023-04-24T03:17:24;17.98;;;14.88;;
25917;SDS011;13899;51.174;4.456;2023-04-24T03:19:50;18.33;;;16.43;;
25917;SDS011;13899;51.174;4.456;2023-04-24T03:22:15;18.15;;;16.27;;
25917;SDS011;13899;51.174;4.456;2023-04-24T03:24:41;19.90;;;17.13;;
25917;SDS011;13899;51.174;4.456;2023-04-24T03:27:07;19.67;;;17.33;;
25917;SDS011;13899;51.174;4.456;2023-04-24T03:29:32;19.80;;;17.17;;
25917;SDS011;13899;51.174;4.456;2023-04-24T03:31:58;20.15;;;17.00;;
25917;SDS011;13899;51.174;4.456;2023-04-24T03:34:24;21.17;;;16.40;;
25917;SDS011;13899;51.174;4.456;2023-04-24T03:36:49;19.13;;;16.53;;
25917;SDS011;13899;51.174;4.456;2023-04-24T03:39:15;21.55;;;18.88;;
25917;SDS011;13899;51.174;4.456;2023-04-24T03:41:41;19.88;;;16.33;;
25917;SDS011;13899;51.174;4.456;2023-04-24T03:44:07;17.90;;;16.05;;
25917;SDS011;13899;51.174;4.456;2023-04-24T03:46:32;21.80;;;17.70;;
25917;SDS011;13899;51.174;4.456;2023-04-24T03:48:58;16.05;;;14.40;;
25917;SDS011;13899;51.174;4.456;2023-04-24T03:51:23;17.00;;;12.88;;
25917;SDS011;13899;51.174;4.456;2023-04-24T03:53:49;15.45;;;11.57;;
25917;SDS011;13899;51.174;4.456;2023-04-24T03:56:15;15.60;;;10.77;;
25917;SDS011;13899;51.174;4.456;2023-04-24T03:58:40;11.33;;;10.13;;
25917;SDS011;13899;51.174;4.456;2023-04-24T04:01:06;11.25;;;8.95;;
25917;SDS011;13899;51.174;4.456;2023-04-24T04:03:32;8.93;;;8.02;;
25917;SDS011;13899;51.174;4.456;2023-04-24T04:05:58;11.67;;;8.53;;
25917;SDS011;13899;51.174;4.456;2023-04-24T04:08:24;10.43;;;7.97;;
25917;SDS011;13899;51.174;4.456;2023-04-24T04:10:50;10.43;;;8.45;;
25917;SDS011;13899;51.174;4.456;2023-04-24T04:13:15;11.02;;;8.77;;
25917;SDS011;13899;51.174;4.456;2023-04-24T04:15:41;13.57;;;10.25;;
25917;SDS011;13899;51.174;4.456;2023-04-24T04:18:06;14.32;;;10.25;;
25917;SDS011;13899;51.174;4.456;2023-04-24T04:20:33;14.93;;;12.45;;
25917;SDS011;13899;51.174;4.456;2023-04-24T04:22:59;14.30;;;12.25;;
25917;SDS011;13899;51.174;4.456;2023-04-24T04:25:24;17.30;;;14.67;;
25917;SDS011;13899;51.174;4.456;2023-04-24T04:27:50;15.43;;;13.83;;
25917;SDS011;13899;51.174;4.456;2023-04-24T04:30:17;18.48;;;13.48;;
25917;SDS011;13899;51.174;4.456;2023-04-24T04:32:43;18.07;;;13.37;;
25917;SDS011;13899;51.174;4.456;2023-04-24T04:35:09;14.83;;;13.27;;
25917;SDS011;13899;51.174;4.456;2023-04-24T04:37:35;17.60;;;13.63;;
25917;SDS011;13899;51.174;4.456;2023-04-24T04:40:01;15.43;;;13.45;;
25917;SDS011;13899;51.174;4.456;2023-04-24T04:42:36;18.88;;;15.23;;
25917;SDS011;13899;51.174;4.456;2023-04-24T04:45:05;15.88;;;13.77;;
25917;SDS011;13899;51.174;4.456;2023-04-24T04:47:34;24.10;;;17.13;;
25917;SDS011;13899;51.174;4.456;2023-04-24T04:50:00;19.00;;;17.03;;
25917;SDS011;13899;51.174;4.456;2023-04-24T04:52:26;18.23;;;15.70;;
25917;SDS011;13899;51.174;4.456;2023-04-24T04:54:52;16.20;;;12.85;;
25917;SDS011;13899;51.174;4.456;2023-04-24T04:57:17;20.33;;;16.73;;
25917;SDS011;13899;51.174;4.456;2023-04-24T04:59:43;23.40;;;17.00;;
25917;SDS011;13899;51.174;4.456;2023-04-24T05:02:09;26.30;;;17.50;;
25917;SDS011;13899;51.174;4.456;2023-04-24T05:04:35;24.15;;;16.80;;
25917;SDS011;13899;51.174;4.456;2023-04-24T05:07:01;20.30;;;16.00;;
25917;SDS011;13899;51.174;4.456;2023-04-24T05:09:26;24.83;;;16.05;;
25917;SDS011;13899;51.174;4.456;2023-04-24T05:11:54;28.23;;;16.73;;
25917;SDS011;13899;51.174;4.456;2023-04-24T05:14:20;20.95;;;15.13;;
25917;SDS011;13899;51.174;4.456;2023-04-24T05:16:46;26.73;;;15.55;;
25917;SDS011;13899;51.174;4.456;2023-04-24T05:19:12;24.75;;;15.10;;
25917;SDS011;13899;51.174;4.456;2023-04-24T05:21:39;16.70;;;13.75;;
25917;SDS011;13899;51.174;4.456;2023-04-24T05:24:08;19.05;;;13.43;;
25917;SDS011;13899;51.174;4.456;2023-04-24T05:26:33;22.93;;;14.83;;
25917;SDS011;13899;51.174;4.456;2023-04-24T05:31:26;22.27;;;13.47;;
25917;SDS011;13899;51.174;4.456;2023-04-24T05:33:52;14.80;;;10.53;;
25917;SDS011;13899;51.174;4.456;2023-04-24T05:36:17;10.80;;;9.30;;
25917;SDS011;13899;51.174;4.456;2023-04-24T05:38:43;12.93;;;9.87;;
25917;SDS011;13899;51.174;4.456;2023-04-24T05:41:09;16.30;;;10.30;;
25917;SDS011;13899;51.174;4.456;2023-04-24T05:43:34;19.80;;;9.63;;
25917;SDS011;13899;51.174;4.456;2023-04-24T05:46:00;16.37;;;10.10;;
25917;SDS011;13899;51.174;4.456;2023-04-24T05:48:25;15.38;;;10.45;;
25917;SDS011;13899;51.174;4.456;2023-04-24T05:50:51;13.50;;;10.27;;
25917;SDS011;13899;51.174;4.456;2023-04-24T05:53:17;11.40;;;10.03;;
25917;SDS011;13899;51.174;4.456;2023-04-24T05:55:43;16.38;;;9.93;;
25917;SDS011;13899;51.174;4.456;2023-04-24T05:58:09;13.48;;;11.75;;
25917;SDS011;13899;51.174;4.456;2023-04-24T06:00:35;15.40;;;12.32;;
25917;SDS011;13899;51.174;4.456;2023-04-24T06:03:02;17.75;;;13.50;;
25917;SDS011;13899;51.174;4.456;2023-04-24T06:05:28;18.70;;;12.33;;
25917;SDS011;13899;51.174;4.456;2023-04-24T06:07:55;19.58;;;12.20;;
25917;SDS011;13899;51.174;4.456;2023-04-24T06:10:20;19.73;;;14.17;;
25917;SDS011;13899;51.174;4.456;2023-04-24T06:12:46;24.37;;;16.73;;
25917;SDS011;13899;51.174;4.456;2023-04-24T06:15:12;33.13;;;21.27;;
25917;SDS011;13899;51.174;4.456;2023-04-24T06:17:38;45.03;;;23.60;;
25917;SDS011;13899;51.174;4.456;2023-04-24T06:20:03;31.83;;;22.53;;
25917;SDS011;13899;51.174;4.456;2023-04-24T06:22:31;28.95;;;18.90;;
25917;SDS011;13899;51.174;4.456;2023-04-24T06:24:57;23.90;;;17.77;;
25917;SDS011;13899;51.174;4.456;2023-04-24T06:27:23;30.57;;;17.97;;
25917;SDS011;13899;51.174;4.456;2023-04-24T06:29:48;31.37;;;16.97;;
25917;SDS011;13899;51.174;4.456;2023-04-24T06:32:21;23.85;;;16.73;;
25917;SDS011;13899;51.174;4.456;2023-04-24T06:34:48;30.17;;;21.63;;
25917;SDS011;13899;51.174;4.456;2023-04-24T06:37:13;25.70;;;17.63;;
25917;SDS011;13899;51.174;4.456;2023-04-24T06:39:40;27.75;;;16.95;;
25917;SDS011;13899;51.174;4.456;2023-04-24T06:42:06;30.35;;;17.42;;
25917;SDS011;13899;51.174;4.456;2023-04-24T06:47:02;37.17;;;20.30;;
25917;SDS011;13899;51.174;4.456;2023-04-24T06:49:28;32.43;;;20.33;;
25917;SDS011;13899;51.174;4.456;2023-04-24T06:51:54;35.53;;;19.00;;
25917;SDS011;13899;51.174;4.456;2023-04-24T06:54:19;24.40;;;17.67;;
25917;SDS011;13899;51.174;4.456;2023-04-24T06:56:45;33.67;;;17.10;;
25917;SDS011;13899;51.174;4.456;2023-04-24T06:59:12;33.70;;;17.08;;
25917;SDS011;13899;51.174;4.456;2023-04-24T07:01:38;26.23;;;18.33;;
25917;SDS011;13899;51.174;4.456;2023-04-24T07:04:03;36.30;;;18.23;;
25917;SDS011;13899;51.174;4.456;2023-04-24T07:06:29;26.13;;;17.88;;
25917;SDS011;13899;51.174;4.456;2023-04-24T07:08:56;21.67;;;12.27;;
25917;SDS011;13899;51.174;4.456;2023-04-24T07:11:22;19.20;;;12.07;;
25917;SDS011;13899;51.174;4.456;2023-04-24T07:13:48;17.23;;;9.93;;
25917;SDS011;13899;51.174;4.456;2023-04-24T07:16:14;15.60;;;8.30;;
25917;SDS011;13899;51.174;4.456;2023-04-24T07:18:39;18.38;;;9.20;;
25917;SDS011;13899;51.174;4.456;2023-04-24T07:21:05;14.98;;;9.68;;
25917;SDS011;13899;51.174;4.456;2023-04-24T07:23:32;13.70;;;7.40;;
25917;SDS011;13899;51.174;4.456;2023-04-24T07:25:57;13.65;;;6.78;;
25917;SDS011;13899;51.174;4.456;2023-04-24T07:28:23;16.97;;;8.53;;
25917;SDS011;13899;51.174;4.456;2023-04-24T07:30:49;13.27;;;5.68;;
25917;SDS011;13899;51.174;4.456;2023-04-24T07:33:15;17.35;;;7.05;;
25917;SDS011;13899;51.174;4.456;2023-04-24T07:35:40;10.32;;;5.35;;
25917;SDS011;13899;51.174;4.456;2023-04-24T07:38:06;11.17;;;5.50;;
25917;SDS011;13899;51.174;4.456;2023-04-24T07:40:32;13.65;;;5.38;;
25917;SDS011;13899;51.174;4.456;2023-04-24T07:42:57;9.33;;;4.80;;
25917;SDS011;13899;51.174;4.456;2023-04-24T07:45:23;12.30;;;4.77;;
25917;SDS011;13899;51.174;4.456;2023-04-24T07:47:51;9.35;;;4.63;;
25917;SDS011;13899;51.174;4.456;2023-04-24T07:50:16;11.73;;;4.43;;
25917;SDS011;13899;51.174;4.456;2023-04-24T07:52:42;5.80;;;3.73;;
25917;SDS011;13899;51.174;4.456;2023-04-24T07:55:08;8.77;;;4.20;;
25917;SDS011;13899;51.174;4.456;2023-04-24T07:57:33;8.53;;;3.60;;
25917;SDS011;13899;51.174;4.456;2023-04-24T07:59:59;11.80;;;3.58;;
25917;SDS011;13899;51.174;4.456;2023-04-24T08:02:25;15.57;;;5.40;;
25917;SDS011;13899;51.174;4.456;2023-04-24T08:04:55;10.43;;;3.70;;
25917;SDS011;13899;51.174;4.456;2023-04-24T08:07:21;8.32;;;3.95;;
25917;SDS011;13899;51.174;4.456;2023-04-24T08:09:48;12.40;;;4.05;;
25917;SDS011;13899;51.174;4.456;2023-04-24T08:12:13;11.07;;;4.47;;
25917;SDS011;13899;51.174;4.456;2023-04-24T08:14:39;14.03;;;6.63;;
25917;SDS011;13899;51.174;4.456;2023-04-24T08:17:05;10.23;;;5.40;;
25917;SDS011;13899;51.174;4.456;2023-04-24T08:19:31;9.57;;;5.20;;
25917;SDS011;13899;51.174;4.456;2023-04-24T08:21:56;11.50;;;6.15;;
25917;SDS011;13899;51.174;4.456;2023-04-24T08:24:22;14.67;;;5.10;;
25917;SDS011;13899;51.174;4.456;2023-04-24T08:26:48;13.13;;;7.55;;
25917;SDS011;13899;51.174;4.456;2023-04-24T08:29:15;20.60;;;7.93;;
25917;SDS011;13899;51.174;4.456;2023-04-24T08:31:41;18.47;;;8.30;;
25917;SDS011;13899;51.174;4.456;2023-04-24T08:34:07;12.02;;;7.57;;
25917;SDS011;13899;51.174;4.456;2023-04-24T08:36:32;15.30;;;6.90;;
25917;SDS011;13899;51.174;4.456;2023-04-24T08:38:58;17.23;;;6.17;;
25917;SDS011;13899;51.174;4.456;2023-04-24T08:41:24;20.47;;;8.43;;
25917;SDS011;13899;51.174;4.456;2023-04-24T08:43:51;17.27;;;6.93;;
25917;SDS011;13899;51.174;4.456;2023-04-24T08:46:17;19.73;;;5.90;;
25917;SDS011;13899;51.174;4.456;2023-04-24T08:48:44;15.18;;;4.80;;
25917;SDS011;13899;51.174;4.456;2023-04-24T08:51:10;9.63;;;4.70;;
25917;SDS011;13899;51.174;4.456;2023-04-24T08:53:36;10.97;;;4.20;;
25917;SDS011;13899;51.174;4.456;2023-04-24T08:56:02;8.23;;;4.55;;
25917;SDS011;13899;51.174;4.456;2023-04-24T08:58:29;10.95;;;4.18;;
25917;SDS011;13899;51.174;4.456;2023-04-24T09:00:56;11.00;;;4.07;;
25917;SDS011;13899;51.174;4.456;2023-04-24T09:03:22;11.55;;;3.95;;
25917;SDS011;13899;51.174;4.456;2023-04-24T09:05:49;10.13;;;3.50;;
25917;SDS011;13899;51.174;4.456;2023-04-24T09:08:19;12.05;;;5.07;;
25917;SDS011;13899;51.174;4.456;2023-04-24T09:10:45;9.05;;;4.55;;
25917;SDS011;13899;51.174;4.456;2023-04-24T09:13:11;9.88;;;5.55;;
25917;SDS011;13899;51.174;4.456;2023-04-24T09:15:40;14.60;;;5.17;;
25917;SDS011;13899;51.174;4.456;2023-04-24T09:18:06;15.75;;;4.68;;
25917;SDS011;13899;51.174;4.456;2023-04-24T09:20:32;10.60;;;7.07;;
25917;SDS011;13899;51.174;4.456;2023-04-24T09:23:00;13.63;;;5.25;;
25917;SDS011;13899;51.174;4.456;2023-04-24T09:25:32;18.27;;;8.75;;
25917;SDS011;13899;51.174;4.456;2023-04-24T09:28:01;12.88;;;4.80;;
25917;SDS011;13899;51.174;4.456;2023-04-24T09:30:28;8.50;;;5.38;;
25917;SDS011;13899;51.174;4.456;2023-04-24T09:33:10;9.90;;;5.90;;
25917;SDS011;13899;51.174;4.456;2023-04-24T09:35:50;13.00;;;5.10;;
25917;SDS011;13899;51.174;4.456;2023-04-24T09:38:16;14.68;;;5.05;;
25917;SDS011;13899;51.174;4.456;2023-04-24T09:40:42;12.02;;;5.13;;
25917;SDS011;13899;51.174;4.456;2023-04-24T09:43:11;10.63;;;4.32;;
25917;SDS011;13899;51.174;4.456;2023-04-24T09:45:37;7.95;;;3.28;;
25917;SDS011;13899;51.174;4.456;2023-04-24T09:48:04;11.45;;;6.65;;
25917;SDS011;13899;51.174;4.456;2023-04-24T09:50:33;10.48;;;5.13;;
25917;SDS011;13899;51.174;4.456;2023-04-24T09:53:03;8.25;;;3.05;;
25917;SDS011;13899;51.174;4.456;2023-04-24T09:55:39;7.37;;;6.67;;
25917;SDS011;13899;51.174;4.456;2023-04-24T09:58:10;10.35;;;3.75;;
25917;SDS011;13899;51.174;4.456;2023-04-24T10:00:36;6.82;;;2.97;;
25917;SDS011;13899;51.174;4.456;2023-04-24T10:03:03;6.68;;;3.08;;
25917;SDS011;13899;51.174;4.456;2023-04-24T10:08:17;11.77;;;11.02;;
25917;SDS011;13899;51.174;4.456;2023-04-24T10:10:43;5.47;;;2.25;;
25917;SDS011;13899;51.174;4.456;2023-04-24T10:13:11;4.75;;;1.80;;
25917;SDS011;13899;51.174;4.456;2023-04-24T10:15:38;4.70;;;3.80;;
25917;SDS011;13899;51.174;4.456;2023-04-24T10:18:05;4.43;;;1.95;;
25917;SDS011;13899;51.174;4.456;2023-04-24T10:20:37;4.90;;;4.60;;
25917;SDS011;13899;51.174;4.456;2023-04-24T10:23:05;6.00;;;5.47;;
25917;SDS011;13899;51.174;4.456;2023-04-24T10:25:32;7.20;;;6.65;;
25917;SDS011;13899;51.174;4.456;2023-04-24T10:28:01;4.30;;;1.48;;
25917;SDS011;13899;51.174;4.456;2023-04-24T10:30:34;4.45;;;1.60;;
25917;SDS011;13899;51.174;4.456;2023-04-24T10:33:10;4.35;;;1.70;;
25917;SDS011;13899;51.174;4.456;2023-04-24T10:35:45;6.00;;;1.80;;
25917;SDS011;13899;51.174;4.456;2023-04-24T10:38:17;4.22;;;3.83;;
25917;SDS011;13899;51.174;4.456;2023-04-24T10:41:10;4.05;;;3.75;;
25917;SDS011;13899;51.174;4.456;2023-04-24T10:43:41;5.65;;;5.28;;
25917;SDS011;13899;51.174;4.456;2023-04-24T10:46:08;4.82;;;1.95;;
25917;SDS011;13899;51.174;4.456;2023-04-24T10:48:35;4.25;;;1.83;;
25917;SDS011;13899;51.174;4.456;2023-04-24T10:51:10;4.35;;;2.08;;
25917;SDS011;13899;51.174;4.456;2023-04-24T10:53:39;4.80;;;2.05;;
25917;SDS011;13899;51.174;4.456;2023-04-24T10:56:08;9.18;;;2.55;;
25917;SDS011;13899;51.174;4.456;2023-04-24T10:58:50;5.82;;;2.22;;
25917;SDS011;13899;51.174;4.456;2023-04-24T11:01:27;8.80;;;8.20;;
25917;SDS011;13899;51.174;4.456;2023-04-24T11:03:54;8.73;;;7.95;;
25917;SDS011;13899;51.174;4.456;2023-04-24T11:06:31;10.23;;;9.25;;
25917;SDS011;13899;51.174;4.456;2023-04-24T11:09:08;7.03;;;6.35;;
25917;SDS011;13899;51.174;4.456;2023-04-24T11:11:37;9.50;;;8.90;;
25917;SDS011;13899;51.174;4.456;2023-04-24T11:14:09;5.65;;;2.15;;
25917;SDS011;13899;51.174;4.456;2023-04-24T11:16:38;16.10;;;15.18;;
25917;SDS011;13899;51.174;4.456;2023-04-24T11:19:08;12.82;;;11.88;;
25917;SDS011;13899;51.174;4.456;2023-04-24T11:21:43;2.55;;;1.20;;
25917;SDS011;13899;51.174;4.456;2023-04-24T11:26:56;10.73;;;9.98;;
25917;SDS011;13899;51.174;4.456;2023-04-24T11:29:47;4.88;;;2.80;;
25917;SDS011;13899;51.174;4.456;2023-04-24T11:32:15;11.80;;;11.20;;
25917;SDS011;13899;51.174;4.456;2023-04-24T11:34:48;9.63;;;8.90;;
25917;SDS011;13899;51.174;4.456;2023-04-24T11:37:15;8.48;;;8.02;;
25917;SDS011;13899;51.174;4.456;2023-04-24T11:39:41;9.25;;;8.63;;
25917;SDS011;13899;51.174;4.456;2023-04-24T11:42:08;10.38;;;9.73;;
25917;SDS011;13899;51.174;4.456;2023-04-24T11:44:34;10.18;;;9.68;;
25917;SDS011;13899;51.174;4.456;2023-04-24T11:47:07;8.68;;;8.10;;
25917;SDS011;13899;51.174;4.456;2023-04-24T11:50:00;3.13;;;1.10;;
25917;SDS011;13899;51.174;4.456;2023-04-24T11:52:31;11.00;;;10.40;;
25917;SDS011;13899;51.174;4.456;2023-04-24T11:54:57;10.98;;;10.23;;
25917;SDS011;13899;51.174;4.456;2023-04-24T11:57:23;15.60;;;14.70;;
25917;SDS011;13899;51.174;4.456;2023-04-24T11:59:52;5.75;;;1.40;;
25917;SDS011;13899;51.174;4.456;2023-04-24T12:02:22;9.05;;;8.43;;
25917;SDS011;13899;51.174;4.456;2023-04-24T12:04:49;12.52;;;11.73;;
25917;SDS011;13899;51.174;4.456;2023-04-24T12:07:15;4.03;;;2.28;;
25917;SDS011;13899;51.174;4.456;2023-04-24T12:09:42;3.30;;;3.00;;
25917;SDS011;13899;51.174;4.456;2023-04-24T12:12:08;14.18;;;13.55;;
25917;SDS011;13899;51.174;4.456;2023-04-24T12:17:34;5.00;;;2.45;;
25917;SDS011;13899;51.174;4.456;2023-04-24T12:20:05;6.97;;;6.38;;
25917;SDS011;13899;51.174;4.456;2023-04-24T12:25:21;3.88;;;1.40;;
25917;SDS011;13899;51.174;4.456;2023-04-24T12:27:54;16.13;;;15.02;;
25917;SDS011;13899;51.174;4.456;2023-04-24T12:30:30;4.10;;;1.15;;
25917;SDS011;13899;51.174;4.456;2023-04-24T12:32:58;4.63;;;1.50;;
25917;SDS011;13899;51.174;4.456;2023-04-24T12:35:25;4.07;;;1.30;;
25917;SDS011;13899;51.174;4.456;2023-04-24T12:37:55;9.07;;;8.48;;
25917;SDS011;13899;51.174;4.456;2023-04-24T12:40:24;9.57;;;9.02;;
25917;SDS011;13899;51.174;4.456;2023-04-24T12:42:51;11.05;;;9.98;;
25917;SDS011;13899;51.174;4.456;2023-04-24T12:45:18;10.57;;;9.88;;
25917;SDS011;13899;51.174;4.456;2023-04-24T12:47:44;10.52;;;9.70;;
25917;SDS011;13899;51.174;4.456;2023-04-24T12:50:12;11.05;;;10.30;;
25917;SDS011;13899;51.174;4.456;2023-04-24T12:52:40;13.05;;;12.23;;
25917;SDS011;13899;51.174;4.456;2023-04-24T12:55:06;16.52;;;15.73;;
25917;SDS011;13899;51.174;4.456;2023-04-24T12:57:33;15.57;;;14.68;;
25917;SDS011;13899;51.174;4.456;2023-04-24T13:00:00;13.18;;;12.40;;
25917;SDS011;13899;51.174;4.456;2023-04-24T13:02:27;4.00;;;1.42;;
25917;SDS011;13899;51.174;4.456;2023-04-24T13:04:56;5.15;;;1.80;;
25917;SDS011;13899;51.174;4.456;2023-04-24T13:07:22;3.15;;;1.50;;
25917;SDS011;13899;51.174;4.456;2023-04-24T13:09:48;6.53;;;6.13;;
25917;SDS011;13899;51.174;4.456;2023-04-24T13:12:15;6.75;;;4.32;;
25917;SDS011;13899;51.174;4.456;2023-04-24T13:14:41;15.60;;;14.90;;
25917;SDS011;13899;51.174;4.456;2023-04-24T13:17:06;14.53;;;13.73;;
25917;SDS011;13899;51.174;4.456;2023-04-24T13:19:39;10.80;;;10.20;;
25917;SDS011;13899;51.174;4.456;2023-04-24T13:22:06;4.85;;;3.65;;
25917;SDS011;13899;51.174;4.456;2023-04-24T13:24:32;3.17;;;0.90;;
25917;SDS011;13899;51.174;4.456;2023-04-24T13:26:58;2.60;;;1.00;;
25917;SDS011;13899;51.174;4.456;2023-04-24T13:31:51;2.60;;;1.20;;
25917;SDS011;13899;51.174;4.456;2023-04-24T13:34:19;2.60;;;1.30;;
25917;SDS011;13899;51.174;4.456;2023-04-24T13:36:44;1.97;;;1.00;;
25917;SDS011;13899;51.174;4.456;2023-04-24T13:39:10;1.77;;;1.10;;
25917;SDS011;13899;51.174;4.456;2023-04-24T13:41:36;2.10;;;1.50;;
25917;SDS011;13899;51.174;4.456;2023-04-24T13:44:03;17.50;;;16.60;;
25917;SDS011;13899;51.174;4.456;2023-04-24T13:46:29;1.95;;;1.65;;
25917;SDS011;13899;51.174;4.456;2023-04-24T13:48:56;9.07;;;8.65;;
25917;SDS011;13899;51.174;4.456;2023-04-24T13:51:22;2.55;;;1.67;;
25917;SDS011;13899;51.174;4.456;2023-04-24T13:53:48;1.58;;;0.85;;
25917;SDS011;13899;51.174;4.456;2023-04-24T13:56:14;1.50;;;0.70;;
25917;SDS011;13899;51.174;4.456;2023-04-24T13:58:40;6.63;;;6.30;;
25917;SDS011;13899;51.174;4.456;2023-04-24T14:01:06;2.17;;;0.60;;
25917;SDS011;13899;51.174;4.456;2023-04-24T14:03:32;18.23;;;17.37;;
25917;SDS011;13899;51.174;4.456;2023-04-24T14:05:58;23.70;;;22.58;;
25917;SDS011;13899;51.174;4.456;2023-04-24T14:08:24;12.17;;;11.50;;
25917;SDS011;13899;51.174;4.456;2023-04-24T14:10:50;9.77;;;9.25;;
25917;SDS011;13899;51.174;4.456;2023-04-24T14:13:16;10.63;;;10.20;;
25917;SDS011;13899;51.174;4.456;2023-04-24T14:15:42;10.02;;;9.18;;
25917;SDS011;13899;51.174;4.456;2023-04-24T14:18:08;4.03;;;3.73;;
25917;SDS011;13899;51.174;4.456;2023-04-24T14:20:35;9.50;;;8.98;;
25917;SDS011;13899;51.174;4.456;2023-04-24T14:23:01;11.40;;;10.90;;
25917;SDS011;13899;51.174;4.456;2023-04-24T14:25:27;8.48;;;7.97;;
25917;SDS011;13899;51.174;4.456;2023-04-24T14:27:53;4.63;;;4.33;;
25917;SDS011;13899;51.174;4.456;2023-04-24T14:30:20;6.82;;;6.43;;
25917;SDS011;13899;51.174;4.456;2023-04-24T14:32:46;7.97;;;7.57;;
25917;SDS011;13899;51.174;4.456;2023-04-24T14:35:12;2.70;;;0.98;;
25917;SDS011;13899;51.174;4.456;2023-04-24T14:37:38;2.55;;;1.08;;
25917;SDS011;13899;51.174;4.456;2023-04-24T14:40:06;9.52;;;1.63;;
25917;SDS011;13899;51.174;4.456;2023-04-24T14:44:59;8.48;;;8.02;;
25917;SDS011;13899;51.174;4.456;2023-04-24T14:47:25;9.43;;;8.83;;
25917;SDS011;13899;51.174;4.456;2023-04-24T14:49:51;5.67;;;5.27;;
25917;SDS011;13899;51.174;4.456;2023-04-24T14:52:17;11.03;;;10.43;;
25917;SDS011;13899;51.174;4.456;2023-04-24T14:54:43;2.80;;;1.83;;